Katrineholm Airport


Codes: ESVK/
Name: Katrineholm Airport
City: Katrineholm
Country: Sweden
Elevation: 0 ft.

Photos at Katrineholm Airport


   Photos courtesy of SpottingLog. You can add your own sightings and photos by signing up for a free trial today.



No photos found.

Weather at Katrineholm Airport


Time (UTC)DescriptionTempratureWindCloud coverageVisibilityPressureHumidity
15-Apr-2024 18:00Few Clouds9°C2 mph, NE11%10000m1001hPa37%
15-Apr-2024 21:00Scattered Clouds5°C4 mph, NE48%10000m1000hPa55%
16-Apr-2024 00:00Overcast Clouds2°C4 mph, NE85%10000m1000hPa78%
16-Apr-2024 03:00Overcast Clouds1°C7 mph, NE100%10000m999hPa90%
16-Apr-2024 06:00Overcast Clouds2°C7 mph, NE100%10000m1000hPa81%
16-Apr-2024 09:00Overcast Clouds4°C9 mph, NE98%10000m1001hPa68%
16-Apr-2024 12:00Light Snow4°C11 mph, N99%4551m1001hPa73%
16-Apr-2024 15:00Light Snow4°C9 mph, N100%10000m1002hPa73%
16-Apr-2024 18:00Overcast Clouds3°C9 mph, N100%10000m1003hPa71%
16-Apr-2024 21:00Overcast Clouds1°C7 mph, N92%10000m1004hPa80%
17-Apr-2024 00:00Broken Clouds-0°C7 mph, NW66%10000m1005hPa91%
17-Apr-2024 03:00Overcast Clouds2°C7 mph, NW98%10000m1005hPa73%
17-Apr-2024 06:00Broken Clouds2°C9 mph, N59%10000m1007hPa71%
17-Apr-2024 09:00Scattered Clouds6°C9 mph, N50%10000m1007hPa49%
17-Apr-2024 12:00Broken Clouds6°C9 mph, N75%10000m1008hPa50%
17-Apr-2024 15:00Light Rain5°C9 mph, NE98%10000m1009hPa62%
17-Apr-2024 18:00Overcast Clouds3°C7 mph, NE99%10000m1012hPa66%
17-Apr-2024 21:00Overcast Clouds0°C4 mph, NE99%10000m1013hPa74%
18-Apr-2024 00:00Overcast Clouds-2°C4 mph, N92%10000m1015hPa83%
18-Apr-2024 03:00Overcast Clouds-1°C4 mph, N99%10000m1016hPa80%
18-Apr-2024 06:00Overcast Clouds0°C7 mph, N89%10000m1017hPa66%
18-Apr-2024 09:00Overcast Clouds3°C9 mph, N98%10000m1017hPa52%
18-Apr-2024 12:00Overcast Clouds4°C7 mph, N99%10000m1017hPa47%
18-Apr-2024 15:00Overcast Clouds5°C7 mph, NE100%10000m1017hPa44%
18-Apr-2024 18:00Broken Clouds1°C4 mph, E68%10000m1017hPa60%
18-Apr-2024 21:00Few Clouds-2°C2 mph, SE11%10000m1016hPa79%
19-Apr-2024 00:00Few Clouds-2°C2 mph, E11%10000m1015hPa81%
19-Apr-2024 03:00Few Clouds-3°C4 mph, NE14%10000m1014hPa86%
19-Apr-2024 06:00Few Clouds0°C4 mph, NE14%10000m1012hPa59%
19-Apr-2024 09:00Few Clouds4°C7 mph, NE12%10000m1011hPa43%
19-Apr-2024 12:00Scattered Clouds6°C7 mph, N46%10000m1009hPa37%
19-Apr-2024 15:00Overcast Clouds6°C7 mph, N100%10000m1008hPa37%
19-Apr-2024 18:00Overcast Clouds1°C7 mph, NE99%10000m1009hPa57%
19-Apr-2024 21:00Clear Sky-3°C4 mph, NE8%10000m1010hPa74%
20-Apr-2024 00:00Clear Sky-4°C4 mph, N9%10000m1010hPa78%
20-Apr-2024 03:00Scattered Clouds-4°C4 mph, NW34%10000m1011hPa77%
20-Apr-2024 06:00Broken Clouds-0°C4 mph, N58%10000m1011hPa58%
20-Apr-2024 09:00Broken Clouds5°C4 mph, NW80%10000m1012hPa44%
20-Apr-2024 12:00Broken Clouds8°C7 mph, NW82%10000m1012hPa42%
20-Apr-2024 15:00Overcast Clouds8°C4 mph, NW93%10000m1012hPa49%